sensor_id;sensor_type;location;lat;lon;timestamp;P1;durP1;ratioP1;P2;durP2;ratioP2
22764;SDS011;11549;50.852;3.816;2023-11-21T00:01:39;39.92;;;22.23;;
22764;SDS011;11549;50.852;3.816;2023-11-21T00:04:07;37.40;;;22.17;;
22764;SDS011;11549;50.852;3.816;2023-11-21T00:06:36;43.17;;;23.70;;
22764;SDS011;11549;50.852;3.816;2023-11-21T00:09:05;35.33;;;22.75;;
22764;SDS011;11549;50.852;3.816;2023-11-21T00:11:36;43.25;;;24.08;;
22764;SDS011;11549;50.852;3.816;2023-11-21T00:14:04;38.35;;;22.02;;
22764;SDS011;11549;50.852;3.816;2023-11-21T00:16:33;42.13;;;23.13;;
22764;SDS011;11549;50.852;3.816;2023-11-21T00:19:01;38.38;;;23.33;;
22764;SDS011;11549;50.852;3.816;2023-11-21T00:21:30;37.60;;;22.45;;
22764;SDS011;11549;50.852;3.816;2023-11-21T00:23:59;32.40;;;20.02;;
22764;SDS011;11549;50.852;3.816;2023-11-21T00:26:27;40.60;;;23.50;;
22764;SDS011;11549;50.852;3.816;2023-11-21T00:28:59;38.53;;;21.95;;
22764;SDS011;11549;50.852;3.816;2023-11-21T00:31:27;38.35;;;22.70;;
22764;SDS011;11549;50.852;3.816;2023-11-21T00:33:57;35.80;;;22.13;;
22764;SDS011;11549;50.852;3.816;2023-11-21T00:36:25;36.03;;;22.33;;
22764;SDS011;11549;50.852;3.816;2023-11-21T00:38:54;38.47;;;21.98;;
22764;SDS011;11549;50.852;3.816;2023-11-21T00:41:23;40.45;;;23.25;;
22764;SDS011;11549;50.852;3.816;2023-11-21T00:43:54;43.25;;;23.65;;
22764;SDS011;11549;50.852;3.816;2023-11-21T00:46:24;35.05;;;22.88;;
22764;SDS011;11549;50.852;3.816;2023-11-21T00:48:53;38.97;;;23.90;;
22764;SDS011;11549;50.852;3.816;2023-11-21T00:51:22;39.50;;;23.00;;
22764;SDS011;11549;50.852;3.816;2023-11-21T00:53:51;36.42;;;23.45;;
22764;SDS011;11549;50.852;3.816;2023-11-21T00:56:19;46.38;;;25.13;;
22764;SDS011;11549;50.852;3.816;2023-11-21T00:58:47;39.28;;;24.23;;
22764;SDS011;11549;50.852;3.816;2023-11-21T01:01:19;37.83;;;24.40;;
22764;SDS011;11549;50.852;3.816;2023-11-21T01:03:50;41.97;;;25.38;;
22764;SDS011;11549;50.852;3.816;2023-11-21T01:06:18;44.60;;;25.92;;
22764;SDS011;11549;50.852;3.816;2023-11-21T01:08:47;39.20;;;25.58;;
22764;SDS011;11549;50.852;3.816;2023-11-21T01:11:15;43.22;;;25.33;;
22764;SDS011;11549;50.852;3.816;2023-11-21T01:13:44;41.65;;;24.20;;
22764;SDS011;11549;50.852;3.816;2023-11-21T01:16:12;43.83;;;26.17;;
22764;SDS011;11549;50.852;3.816;2023-11-21T01:18:41;48.70;;;26.77;;
22764;SDS011;11549;50.852;3.816;2023-11-21T01:21:11;46.15;;;26.17;;
22764;SDS011;11549;50.852;3.816;2023-11-21T01:23:39;42.20;;;24.10;;
22764;SDS011;11549;50.852;3.816;2023-11-21T01:26:07;39.28;;;23.33;;
22764;SDS011;11549;50.852;3.816;2023-11-21T01:28:36;38.08;;;23.77;;
22764;SDS011;11549;50.852;3.816;2023-11-21T01:31:05;38.78;;;23.45;;
22764;SDS011;11549;50.852;3.816;2023-11-21T01:33:33;41.00;;;23.80;;
22764;SDS011;11549;50.852;3.816;2023-11-21T01:36:02;38.25;;;22.17;;
22764;SDS011;11549;50.852;3.816;2023-11-21T01:38:33;41.20;;;23.33;;
22764;SDS011;11549;50.852;3.816;2023-11-21T01:41:01;39.20;;;22.58;;
22764;SDS011;11549;50.852;3.816;2023-11-21T01:43:30;40.10;;;22.73;;
22764;SDS011;11549;50.852;3.816;2023-11-21T01:45:59;42.65;;;22.95;;
22764;SDS011;11549;50.852;3.816;2023-11-21T01:48:28;39.75;;;22.23;;
22764;SDS011;11549;50.852;3.816;2023-11-21T01:50:57;39.45;;;21.58;;
22764;SDS011;11549;50.852;3.816;2023-11-21T01:53:26;40.88;;;22.65;;
22764;SDS011;11549;50.852;3.816;2023-11-21T01:55:57;41.58;;;21.48;;
22764;SDS011;11549;50.852;3.816;2023-11-21T01:58:26;37.30;;;20.90;;
22764;SDS011;11549;50.852;3.816;2023-11-21T02:00:54;40.60;;;21.55;;
22764;SDS011;11549;50.852;3.816;2023-11-21T02:03:22;40.55;;;21.52;;
22764;SDS011;11549;50.852;3.816;2023-11-21T02:05:52;34.83;;;21.38;;
22764;SDS011;11549;50.852;3.816;2023-11-21T02:08:21;32.13;;;19.90;;
22764;SDS011;11549;50.852;3.816;2023-11-21T02:10:49;37.08;;;21.30;;
22764;SDS011;11549;50.852;3.816;2023-11-21T02:13:19;39.45;;;21.58;;
22764;SDS011;11549;50.852;3.816;2023-11-21T02:15:48;34.25;;;19.75;;
22764;SDS011;11549;50.852;3.816;2023-11-21T02:18:18;28.95;;;18.50;;
22764;SDS011;11549;50.852;3.816;2023-11-21T02:20:48;32.55;;;19.27;;
22764;SDS011;11549;50.852;3.816;2023-11-21T02:23:18;41.25;;;20.85;;
22764;SDS011;11549;50.852;3.816;2023-11-21T02:25:47;33.85;;;19.60;;
22764;SDS011;11549;50.852;3.816;2023-11-21T02:28:15;32.97;;;19.48;;
22764;SDS011;11549;50.852;3.816;2023-11-21T02:30:52;39.47;;;20.20;;
22764;SDS011;11549;50.852;3.816;2023-11-21T02:33:22;38.38;;;20.30;;
22764;SDS011;11549;50.852;3.816;2023-11-21T02:35:51;34.65;;;19.85;;
22764;SDS011;11549;50.852;3.816;2023-11-21T02:38:23;33.70;;;19.38;;
22764;SDS011;11549;50.852;3.816;2023-11-21T02:40:51;36.92;;;18.98;;
22764;SDS011;11549;50.852;3.816;2023-11-21T02:43:19;43.67;;;19.98;;
22764;SDS011;11549;50.852;3.816;2023-11-21T02:45:48;36.25;;;20.02;;
22764;SDS011;11549;50.852;3.816;2023-11-21T02:48:16;37.45;;;19.77;;
22764;SDS011;11549;50.852;3.816;2023-11-21T02:50:45;34.92;;;19.77;;
22764;SDS011;11549;50.852;3.816;2023-11-21T02:53:13;30.48;;;19.45;;
22764;SDS011;11549;50.852;3.816;2023-11-21T02:55:43;35.42;;;19.60;;
22764;SDS011;11549;50.852;3.816;2023-11-21T02:58:11;35.90;;;20.65;;
22764;SDS011;11549;50.852;3.816;2023-11-21T03:00:40;28.75;;;17.58;;
22764;SDS011;11549;50.852;3.816;2023-11-21T03:03:08;35.35;;;19.05;;
22764;SDS011;11549;50.852;3.816;2023-11-21T03:05:37;32.67;;;19.75;;
22764;SDS011;11549;50.852;3.816;2023-11-21T03:08:05;38.75;;;19.88;;
22764;SDS011;11549;50.852;3.816;2023-11-21T03:10:33;37.20;;;19.75;;
22764;SDS011;11549;50.852;3.816;2023-11-21T03:13:03;38.63;;;19.15;;
22764;SDS011;11549;50.852;3.816;2023-11-21T03:15:32;34.55;;;18.58;;
22764;SDS011;11549;50.852;3.816;2023-11-21T03:18:01;37.17;;;19.95;;
22764;SDS011;11549;50.852;3.816;2023-11-21T03:20:31;31.88;;;19.40;;
22764;SDS011;11549;50.852;3.816;2023-11-21T03:22:59;33.33;;;19.25;;
22764;SDS011;11549;50.852;3.816;2023-11-21T03:25:28;37.08;;;18.88;;
22764;SDS011;11549;50.852;3.816;2023-11-21T03:27:56;25.95;;;16.95;;
22764;SDS011;11549;50.852;3.816;2023-11-21T03:30:26;33.10;;;18.45;;
22764;SDS011;11549;50.852;3.816;2023-11-21T03:32:54;35.08;;;18.60;;
22764;SDS011;11549;50.852;3.816;2023-11-21T03:35:23;32.00;;;17.52;;
22764;SDS011;11549;50.852;3.816;2023-11-21T03:37:51;34.03;;;19.45;;
22764;SDS011;11549;50.852;3.816;2023-11-21T03:40:20;29.50;;;18.80;;
22764;SDS011;11549;50.852;3.816;2023-11-21T03:42:48;30.88;;;17.33;;
22764;SDS011;11549;50.852;3.816;2023-11-21T03:45:17;33.00;;;17.80;;
22764;SDS011;11549;50.852;3.816;2023-11-21T03:47:47;29.92;;;17.25;;
22764;SDS011;11549;50.852;3.816;2023-11-21T03:50:15;37.38;;;18.70;;
22764;SDS011;11549;50.852;3.816;2023-11-21T03:52:44;37.08;;;19.13;;
22764;SDS011;11549;50.852;3.816;2023-11-21T03:55:12;35.55;;;18.80;;
22764;SDS011;11549;50.852;3.816;2023-11-21T03:57:41;38.22;;;19.77;;
22764;SDS011;11549;50.852;3.816;2023-11-21T04:00:10;35.40;;;20.05;;
22764;SDS011;11549;50.852;3.816;2023-11-21T04:02:39;38.60;;;20.85;;
22764;SDS011;11549;50.852;3.816;2023-11-21T04:05:09;42.10;;;21.08;;
22764;SDS011;11549;50.852;3.816;2023-11-21T04:07:38;36.30;;;20.00;;
22764;SDS011;11549;50.852;3.816;2023-11-21T04:10:07;40.33;;;20.40;;
22764;SDS011;11549;50.852;3.816;2023-11-21T04:12:38;35.03;;;19.80;;
22764;SDS011;11549;50.852;3.816;2023-11-21T04:15:07;34.35;;;20.15;;
22764;SDS011;11549;50.852;3.816;2023-11-21T04:17:36;36.28;;;19.05;;
22764;SDS011;11549;50.852;3.816;2023-11-21T04:20:06;39.65;;;21.75;;
22764;SDS011;11549;50.852;3.816;2023-11-21T04:22:38;36.75;;;20.80;;
22764;SDS011;11549;50.852;3.816;2023-11-21T04:25:11;35.58;;;20.80;;
22764;SDS011;11549;50.852;3.816;2023-11-21T04:27:41;37.95;;;19.63;;
22764;SDS011;11549;50.852;3.816;2023-11-21T04:30:12;38.33;;;21.77;;
22764;SDS011;11549;50.852;3.816;2023-11-21T04:32:41;39.03;;;21.42;;
22764;SDS011;11549;50.852;3.816;2023-11-21T04:35:10;41.95;;;22.23;;
22764;SDS011;11549;50.852;3.816;2023-11-21T04:37:40;38.17;;;21.85;;
22764;SDS011;11549;50.852;3.816;2023-11-21T04:40:09;40.03;;;22.70;;
22764;SDS011;11549;50.852;3.816;2023-11-21T04:42:38;35.63;;;21.30;;
22764;SDS011;11549;50.852;3.816;2023-11-21T04:45:07;42.80;;;25.75;;
22764;SDS011;11549;50.852;3.816;2023-11-21T04:47:39;47.13;;;25.10;;
22764;SDS011;11549;50.852;3.816;2023-11-21T04:50:08;41.85;;;24.38;;
22764;SDS011;11549;50.852;3.816;2023-11-21T04:52:37;46.22;;;25.50;;
22764;SDS011;11549;50.852;3.816;2023-11-21T04:55:07;48.88;;;26.83;;
22764;SDS011;11549;50.852;3.816;2023-11-21T04:57:37;43.40;;;24.75;;
22764;SDS011;11549;50.852;3.816;2023-11-21T05:00:08;43.53;;;25.40;;
22764;SDS011;11549;50.852;3.816;2023-11-21T05:02:38;48.65;;;27.13;;
22764;SDS011;11549;50.852;3.816;2023-11-21T05:05:08;51.30;;;28.30;;
22764;SDS011;11549;50.852;3.816;2023-11-21T05:07:37;49.67;;;26.55;;
22764;SDS011;11549;50.852;3.816;2023-11-21T05:10:08;43.17;;;25.77;;
22764;SDS011;11549;50.852;3.816;2023-11-21T05:12:39;47.97;;;26.75;;
22764;SDS011;11549;50.852;3.816;2023-11-21T05:15:09;45.40;;;26.35;;
22764;SDS011;11549;50.852;3.816;2023-11-21T05:17:42;59.17;;;30.85;;
22764;SDS011;11549;50.852;3.816;2023-11-21T05:20:11;54.67;;;29.23;;
22764;SDS011;11549;50.852;3.816;2023-11-21T05:22:40;56.67;;;29.38;;
22764;SDS011;11549;50.852;3.816;2023-11-21T05:25:11;51.63;;;27.60;;
22764;SDS011;11549;50.852;3.816;2023-11-21T05:27:40;49.70;;;27.10;;
22764;SDS011;11549;50.852;3.816;2023-11-21T05:30:08;55.33;;;28.60;;
22764;SDS011;11549;50.852;3.816;2023-11-21T05:32:38;59.65;;;31.15;;
22764;SDS011;11549;50.852;3.816;2023-11-21T05:35:09;55.88;;;29.00;;
22764;SDS011;11549;50.852;3.816;2023-11-21T05:37:41;50.60;;;29.30;;
22764;SDS011;11549;50.852;3.816;2023-11-21T05:40:12;68.32;;;33.00;;
22764;SDS011;11549;50.852;3.816;2023-11-21T05:42:40;62.33;;;31.08;;
22764;SDS011;11549;50.852;3.816;2023-11-21T05:45:09;67.80;;;32.25;;
22764;SDS011;11549;50.852;3.816;2023-11-21T05:47:40;61.42;;;31.48;;
22764;SDS011;11549;50.852;3.816;2023-11-21T05:50:09;71.95;;;33.00;;
22764;SDS011;11549;50.852;3.816;2023-11-21T05:52:42;61.97;;;30.38;;
22764;SDS011;11549;50.852;3.816;2023-11-21T05:55:12;59.38;;;30.92;;
22764;SDS011;11549;50.852;3.816;2023-11-21T05:57:40;63.20;;;31.95;;
22764;SDS011;11549;50.852;3.816;2023-11-21T06:00:11;61.78;;;31.02;;
22764;SDS011;11549;50.852;3.816;2023-11-21T06:02:46;54.83;;;28.80;;
22764;SDS011;11549;50.852;3.816;2023-11-21T06:05:17;62.33;;;30.63;;
22764;SDS011;11549;50.852;3.816;2023-11-21T06:07:46;59.20;;;29.95;;
22764;SDS011;11549;50.852;3.816;2023-11-21T06:10:16;58.40;;;30.42;;
22764;SDS011;11549;50.852;3.816;2023-11-21T06:12:46;57.88;;;29.10;;
22764;SDS011;11549;50.852;3.816;2023-11-21T06:15:15;66.75;;;30.70;;
22764;SDS011;11549;50.852;3.816;2023-11-21T06:17:45;57.22;;;28.35;;
22764;SDS011;11549;50.852;3.816;2023-11-21T06:20:19;55.55;;;28.63;;
22764;SDS011;11549;50.852;3.816;2023-11-21T06:22:48;66.20;;;29.60;;
22764;SDS011;11549;50.852;3.816;2023-11-21T06:25:20;58.83;;;27.45;;
22764;SDS011;11549;50.852;3.816;2023-11-21T06:27:49;155.73;;;91.80;;
22764;SDS011;11549;50.852;3.816;2023-11-21T06:30:20;104.45;;;63.88;;
22764;SDS011;11549;50.852;3.816;2023-11-21T06:32:50;78.15;;;42.72;;
22764;SDS011;11549;50.852;3.816;2023-11-21T06:35:19;68.50;;;33.58;;
22764;SDS011;11549;50.852;3.816;2023-11-21T06:37:48;62.28;;;31.42;;
22764;SDS011;11549;50.852;3.816;2023-11-21T06:40:18;61.38;;;29.65;;
22764;SDS011;11549;50.852;3.816;2023-11-21T06:42:48;57.53;;;29.20;;
22764;SDS011;11549;50.852;3.816;2023-11-21T06:45:18;58.58;;;28.45;;
22764;SDS011;11549;50.852;3.816;2023-11-21T06:47:48;53.05;;;27.00;;
22764;SDS011;11549;50.852;3.816;2023-11-21T06:50:17;54.63;;;27.95;;
22764;SDS011;11549;50.852;3.816;2023-11-21T06:52:45;59.97;;;29.85;;
22764;SDS011;11549;50.852;3.816;2023-11-21T06:55:14;56.03;;;27.60;;
22764;SDS011;11549;50.852;3.816;2023-11-21T06:57:43;62.97;;;30.08;;
22764;SDS011;11549;50.852;3.816;2023-11-21T07:00:13;57.80;;;29.77;;
22764;SDS011;11549;50.852;3.816;2023-11-21T07:05:13;56.13;;;28.27;;
22764;SDS011;11549;50.852;3.816;2023-11-21T07:07:42;110.13;;;32.10;;
22764;SDS011;11549;50.852;3.816;2023-11-21T07:10:10;73.15;;;31.17;;
22764;SDS011;11549;50.852;3.816;2023-11-21T07:12:39;54.97;;;28.95;;
22764;SDS011;11549;50.852;3.816;2023-11-21T07:15:08;95.00;;;31.67;;
22764;SDS011;11549;50.852;3.816;2023-11-21T07:17:38;167.77;;;35.60;;
22764;SDS011;11549;50.852;3.816;2023-11-21T07:20:08;63.45;;;30.55;;
22764;SDS011;11549;50.852;3.816;2023-11-21T07:22:38;62.13;;;30.23;;
22764;SDS011;11549;50.852;3.816;2023-11-21T07:25:07;73.85;;;32.22;;
22764;SDS011;11549;50.852;3.816;2023-11-21T07:27:37;74.25;;;30.85;;
22764;SDS011;11549;50.852;3.816;2023-11-21T07:30:06;84.82;;;33.08;;
22764;SDS011;11549;50.852;3.816;2023-11-21T07:32:38;109.68;;;33.63;;
22764;SDS011;11549;50.852;3.816;2023-11-21T07:35:08;91.38;;;32.45;;
22764;SDS011;11549;50.852;3.816;2023-11-21T07:37:37;70.00;;;30.98;;
22764;SDS011;11549;50.852;3.816;2023-11-21T07:40:06;320.83;;;40.80;;
22764;SDS011;11549;50.852;3.816;2023-11-21T07:42:38;166.32;;;35.53;;
22764;SDS011;11549;50.852;3.816;2023-11-21T07:45:07;99.90;;;31.08;;
22764;SDS011;11549;50.852;3.816;2023-11-21T07:47:35;158.77;;;36.33;;
22764;SDS011;11549;50.852;3.816;2023-11-21T07:50:08;69.00;;;31.58;;
22764;SDS011;11549;50.852;3.816;2023-11-21T07:52:36;65.65;;;30.58;;
22764;SDS011;11549;50.852;3.816;2023-11-21T07:55:05;59.70;;;30.45;;
22764;SDS011;11549;50.852;3.816;2023-11-21T07:57:35;110.35;;;32.05;;
22764;SDS011;11549;50.852;3.816;2023-11-21T08:00:03;59.25;;;29.67;;
22764;SDS011;11549;50.852;3.816;2023-11-21T08:02:36;76.57;;;31.13;;
22764;SDS011;11549;50.852;3.816;2023-11-21T08:05:05;97.88;;;31.45;;
22764;SDS011;11549;50.852;3.816;2023-11-21T08:07:42;141.07;;;35.55;;
22764;SDS011;11549;50.852;3.816;2023-11-21T08:10:11;150.98;;;36.00;;
22764;SDS011;11549;50.852;3.816;2023-11-21T08:12:39;188.27;;;37.28;;
22764;SDS011;11549;50.852;3.816;2023-11-21T08:15:09;76.53;;;31.15;;
22764;SDS011;11549;50.852;3.816;2023-11-21T08:17:38;97.30;;;32.47;;
22764;SDS011;11549;50.852;3.816;2023-11-21T08:20:06;174.65;;;34.92;;
22764;SDS011;11549;50.852;3.816;2023-11-21T08:22:37;62.95;;;27.85;;
22764;SDS011;11549;50.852;3.816;2023-11-21T08:25:09;92.18;;;30.65;;
22764;SDS011;11549;50.852;3.816;2023-11-21T08:27:37;139.77;;;30.23;;
22764;SDS011;11549;50.852;3.816;2023-11-21T08:30:06;89.35;;;28.23;;
22764;SDS011;11549;50.852;3.816;2023-11-21T08:32:35;97.70;;;28.88;;
22764;SDS011;11549;50.852;3.816;2023-11-21T08:35:03;238.57;;;35.40;;
22764;SDS011;11549;50.852;3.816;2023-11-21T08:37:32;87.38;;;30.27;;
22764;SDS011;11549;50.852;3.816;2023-11-21T08:40:04;104.22;;;32.38;;
22764;SDS011;11549;50.852;3.816;2023-11-21T08:42:37;158.80;;;35.47;;
22764;SDS011;11549;50.852;3.816;2023-11-21T08:45:06;167.38;;;32.63;;
22764;SDS011;11549;50.852;3.816;2023-11-21T08:47:35;79.45;;;29.70;;
22764;SDS011;11549;50.852;3.816;2023-11-21T08:50:04;93.60;;;28.95;;
22764;SDS011;11549;50.852;3.816;2023-11-21T08:52:34;72.45;;;26.83;;
22764;SDS011;11549;50.852;3.816;2023-11-21T08:55:04;51.05;;;24.25;;
22764;SDS011;11549;50.852;3.816;2023-11-21T08:57:34;51.33;;;24.10;;
22764;SDS011;11549;50.852;3.816;2023-11-21T09:00:05;53.40;;;24.20;;
22764;SDS011;11549;50.852;3.816;2023-11-21T09:05:09;69.78;;;25.48;;
22764;SDS011;11549;50.852;3.816;2023-11-21T09:07:38;55.15;;;23.33;;
22764;SDS011;11549;50.852;3.816;2023-11-21T09:10:09;48.03;;;22.67;;
22764;SDS011;11549;50.852;3.816;2023-11-21T09:12:39;48.45;;;23.02;;
22764;SDS011;11549;50.852;3.816;2023-11-21T09:15:09;42.67;;;22.08;;
22764;SDS011;11549;50.852;3.816;2023-11-21T09:17:38;46.10;;;22.08;;
22764;SDS011;11549;50.852;3.816;2023-11-21T09:20:07;42.10;;;23.02;;
22764;SDS011;11549;50.852;3.816;2023-11-21T09:22:37;47.58;;;23.58;;
22764;SDS011;11549;50.852;3.816;2023-11-21T09:25:06;46.05;;;25.30;;
22764;SDS011;11549;50.852;3.816;2023-11-21T09:27:36;47.08;;;26.17;;
22764;SDS011;11549;50.852;3.816;2023-11-21T09:30:06;45.50;;;26.58;;
22764;SDS011;11549;50.852;3.816;2023-11-21T09:32:37;44.15;;;24.13;;
22764;SDS011;11549;50.852;3.816;2023-11-21T09:35:07;43.78;;;26.17;;
22764;SDS011;11549;50.852;3.816;2023-11-21T09:37:37;45.15;;;26.58;;
22764;SDS011;11549;50.852;3.816;2023-11-21T09:40:06;47.33;;;26.75;;
22764;SDS011;11549;50.852;3.816;2023-11-21T09:42:43;51.03;;;29.88;;
22764;SDS011;11549;50.852;3.816;2023-11-21T09:45:18;47.78;;;30.42;;
22764;SDS011;11549;50.852;3.816;2023-11-21T09:47:52;38.67;;;27.00;;
22764;SDS011;11549;50.852;3.816;2023-11-21T09:50:22;34.33;;;23.13;;
22764;SDS011;11549;50.852;3.816;2023-11-21T09:52:57;26.98;;;20.13;;
22764;SDS011;11549;50.852;3.816;2023-11-21T09:55:34;26.42;;;19.98;;
22764;SDS011;11549;50.852;3.816;2023-11-21T09:58:03;28.65;;;18.08;;
22764;SDS011;11549;50.852;3.816;2023-11-21T10:00:35;25.90;;;18.45;;
22764;SDS011;11549;50.852;3.816;2023-11-21T10:03:04;27.38;;;19.30;;
22764;SDS011;11549;50.852;3.816;2023-11-21T10:05:33;24.70;;;18.05;;
22764;SDS011;11549;50.852;3.816;2023-11-21T10:08:02;21.85;;;16.33;;
22764;SDS011;11549;50.852;3.816;2023-11-21T10:10:33;24.83;;;16.85;;
22764;SDS011;11549;50.852;3.816;2023-11-21T10:13:04;21.52;;;16.00;;
22764;SDS011;11549;50.852;3.816;2023-11-21T10:15:35;19.77;;;14.02;;
22764;SDS011;11549;50.852;3.816;2023-11-21T10:18:04;19.13;;;13.07;;
22764;SDS011;11549;50.852;3.816;2023-11-21T10:20:36;17.48;;;12.15;;
22764;SDS011;11549;50.852;3.816;2023-11-21T10:23:04;18.48;;;12.88;;
22764;SDS011;11549;50.852;3.816;2023-11-21T10:25:34;18.00;;;12.80;;
22764;SDS011;11549;50.852;3.816;2023-11-21T10:28:04;16.40;;;11.68;;
22764;SDS011;11549;50.852;3.816;2023-11-21T10:30:33;18.40;;;12.13;;
22764;SDS011;11549;50.852;3.816;2023-11-21T10:33:05;16.60;;;11.25;;
22764;SDS011;11549;50.852;3.816;2023-11-21T10:35:38;15.98;;;11.10;;
22764;SDS011;11549;50.852;3.816;2023-11-21T10:38:13;14.85;;;10.88;;
22764;SDS011;11549;50.852;3.816;2023-11-21T10:40:42;18.67;;;10.32;;
22764;SDS011;11549;50.852;3.816;2023-11-21T10:43:13;16.30;;;10.40;;
22764;SDS011;11549;50.852;3.816;2023-11-21T10:45:44;18.42;;;9.77;;
22764;SDS011;11549;50.852;3.816;2023-11-21T10:48:13;16.23;;;10.27;;
22764;SDS011;11549;50.852;3.816;2023-11-21T10:50:43;15.98;;;10.30;;
22764;SDS011;11549;50.852;3.816;2023-11-21T10:53:13;17.63;;;11.38;;
22764;SDS011;11549;50.852;3.816;2023-11-21T10:55:42;18.95;;;12.05;;
22764;SDS011;11549;50.852;3.816;2023-11-21T10:58:12;17.08;;;11.35;;
22764;SDS011;11549;50.852;3.816;2023-11-21T11:00:41;17.63;;;11.27;;
22764;SDS011;11549;50.852;3.816;2023-11-21T11:03:13;17.55;;;10.80;;
22764;SDS011;11549;50.852;3.816;2023-11-21T11:05:43;17.55;;;11.15;;
22764;SDS011;11549;50.852;3.816;2023-11-21T11:08:20;17.08;;;10.13;;
22764;SDS011;11549;50.852;3.816;2023-11-21T11:10:54;15.55;;;9.90;;
22764;SDS011;11549;50.852;3.816;2023-11-21T11:13:25;13.30;;;8.93;;
22764;SDS011;11549;50.852;3.816;2023-11-21T11:15:57;15.00;;;9.20;;
22764;SDS011;11549;50.852;3.816;2023-11-21T11:18:28;15.02;;;8.88;;
22764;SDS011;11549;50.852;3.816;2023-11-21T11:20:59;14.48;;;6.95;;
22764;SDS011;11549;50.852;3.816;2023-11-21T11:23:40;15.20;;;7.93;;
22764;SDS011;11549;50.852;3.816;2023-11-21T11:26:20;13.90;;;6.75;;
22764;SDS011;11549;50.852;3.816;2023-11-21T11:29:01;16.88;;;7.18;;
22764;SDS011;11549;50.852;3.816;2023-11-21T11:31:39;13.45;;;6.60;;
22764;SDS011;11549;50.852;3.816;2023-11-21T11:34:19;12.02;;;5.97;;
22764;SDS011;11549;50.852;3.816;2023-11-21T11:36:54;10.57;;;5.82;;
22764;SDS011;11549;50.852;3.816;2023-11-21T11:39:34;11.35;;;6.10;;
22764;SDS011;11549;50.852;3.816;2023-11-21T11:42:06;14.35;;;6.47;;
22764;SDS011;11549;50.852;3.816;2023-11-21T11:44:51;14.07;;;6.30;;
22764;SDS011;11549;50.852;3.816;2023-11-21T11:47:24;10.55;;;6.28;;
22764;SDS011;11549;50.852;3.816;2023-11-21T11:49:59;14.63;;;6.43;;
22764;SDS011;11549;50.852;3.816;2023-11-21T11:52:34;13.50;;;5.95;;
22764;SDS011;11549;50.852;3.816;2023-11-21T11:55:04;17.42;;;5.82;;
22764;SDS011;11549;50.852;3.816;2023-11-21T11:57:36;9.40;;;4.88;;
22764;SDS011;11549;50.852;3.816;2023-11-21T12:00:09;10.98;;;4.97;;
22764;SDS011;11549;50.852;3.816;2023-11-21T12:02:45;12.15;;;4.88;;
22764;SDS011;11549;50.852;3.816;2023-11-21T12:05:15;9.52;;;4.70;;
22764;SDS011;11549;50.852;3.816;2023-11-21T12:07:46;10.82;;;4.63;;
22764;SDS011;11549;50.852;3.816;2023-11-21T12:10:17;9.52;;;4.60;;
22764;SDS011;11549;50.852;3.816;2023-11-21T12:12:46;11.27;;;4.40;;
22764;SDS011;11549;50.852;3.816;2023-11-21T12:15:17;10.18;;;4.00;;
22764;SDS011;11549;50.852;3.816;2023-11-21T12:17:48;10.63;;;4.38;;
22764;SDS011;11549;50.852;3.816;2023-11-21T12:20:18;13.27;;;4.80;;
22764;SDS011;11549;50.852;3.816;2023-11-21T12:22:49;10.52;;;4.28;;
22764;SDS011;11549;50.852;3.816;2023-11-21T12:25:19;8.52;;;4.32;;
22764;SDS011;11549;50.852;3.816;2023-11-21T12:27:48;9.15;;;4.75;;
22764;SDS011;11549;50.852;3.816;2023-11-21T12:30:18;9.15;;;4.65;;
22764;SDS011;11549;50.852;3.816;2023-11-21T12:32:50;11.00;;;4.90;;
22764;SDS011;11549;50.852;3.816;2023-11-21T12:35:20;10.15;;;4.93;;
22764;SDS011;11549;50.852;3.816;2023-11-21T12:37:50;9.35;;;4.20;;
22764;SDS011;11549;50.852;3.816;2023-11-21T12:40:20;12.23;;;4.85;;
22764;SDS011;11549;50.852;3.816;2023-11-21T12:42:50;9.57;;;4.25;;
22764;SDS011;11549;50.852;3.816;2023-11-21T12:45:21;10.98;;;4.22;;
22764;SDS011;11549;50.852;3.816;2023-11-21T12:47:54;9.95;;;4.30;;
22764;SDS011;11549;50.852;3.816;2023-11-21T12:50:27;9.95;;;4.13;;
22764;SDS011;11549;50.852;3.816;2023-11-21T12:52:58;9.00;;;4.15;;
22764;SDS011;11549;50.852;3.816;2023-11-21T12:55:30;7.35;;;4.53;;
22764;SDS011;11549;50.852;3.816;2023-11-21T12:58:00;7.85;;;3.92;;
22764;SDS011;11549;50.852;3.816;2023-11-21T13:00:35;10.60;;;5.07;;
22764;SDS011;11549;50.852;3.816;2023-11-21T13:03:08;8.35;;;4.75;;
22764;SDS011;11549;50.852;3.816;2023-11-21T13:05:39;8.70;;;4.82;;
22764;SDS011;11549;50.852;3.816;2023-11-21T13:08:14;11.18;;;5.10;;
22764;SDS011;11549;50.852;3.816;2023-11-21T13:10:47;9.35;;;5.47;;
22764;SDS011;11549;50.852;3.816;2023-11-21T13:13:17;9.55;;;4.85;;
22764;SDS011;11549;50.852;3.816;2023-11-21T13:15:51;8.65;;;5.68;;
22764;SDS011;11549;50.852;3.816;2023-11-21T13:18:24;15.57;;;6.38;;
22764;SDS011;11549;50.852;3.816;2023-11-21T13:20:53;10.25;;;6.45;;
22764;SDS011;11549;50.852;3.816;2023-11-21T13:23:23;11.00;;;7.60;;
22764;SDS011;11549;50.852;3.816;2023-11-21T13:25:52;12.80;;;8.13;;
22764;SDS011;11549;50.852;3.816;2023-11-21T13:28:30;11.27;;;7.85;;
22764;SDS011;11549;50.852;3.816;2023-11-21T13:31:01;12.77;;;7.95;;
22764;SDS011;11549;50.852;3.816;2023-11-21T13:33:38;13.95;;;9.82;;
22764;SDS011;11549;50.852;3.816;2023-11-21T13:36:10;13.02;;;9.75;;
22764;SDS011;11549;50.852;3.816;2023-11-21T13:38:40;14.10;;;9.30;;
22764;SDS011;11549;50.852;3.816;2023-11-21T13:41:10;11.50;;;7.85;;
22764;SDS011;11549;50.852;3.816;2023-11-21T13:43:41;10.95;;;8.70;;
22764;SDS011;11549;50.852;3.816;2023-11-21T13:46:14;12.02;;;9.52;;
22764;SDS011;11549;50.852;3.816;2023-11-21T13:48:50;11.85;;;8.38;;
22764;SDS011;11549;50.852;3.816;2023-11-21T13:51:23;11.70;;;8.68;;
22764;SDS011;11549;50.852;3.816;2023-11-21T13:54:02;14.70;;;8.90;;
22764;SDS011;11549;50.852;3.816;2023-11-21T13:56:36;10.77;;;8.65;;
22764;SDS011;11549;50.852;3.816;2023-11-21T13:59:06;12.82;;;9.40;;
22764;SDS011;11549;50.852;3.816;2023-11-21T14:01:45;12.60;;;9.07;;
22764;SDS011;11549;50.852;3.816;2023-11-21T14:04:24;11.95;;;8.90;;
22764;SDS011;11549;50.852;3.816;2023-11-21T14:07:14;10.77;;;8.55;;
22764;SDS011;11549;50.852;3.816;2023-11-21T14:09:52;11.95;;;8.52;;
22764;SDS011;11549;50.852;3.816;2023-11-21T14:12:21;12.10;;;8.88;;
22764;SDS011;11549;50.852;3.816;2023-11-21T14:14:49;11.18;;;9.55;;
22764;SDS011;11549;50.852;3.816;2023-11-21T14:17:18;11.77;;;8.98;;
22764;SDS011;11549;50.852;3.816;2023-11-21T14:19:50;14.30;;;9.82;;
22764;SDS011;11549;50.852;3.816;2023-11-21T14:22:19;14.15;;;10.50;;
22764;SDS011;11549;50.852;3.816;2023-11-21T14:24:47;16.50;;;11.23;;
22764;SDS011;11549;50.852;3.816;2023-11-21T14:27:19;14.80;;;10.85;;
22764;SDS011;11549;50.852;3.816;2023-11-21T14:29:47;14.93;;;11.38;;
22764;SDS011;11549;50.852;3.816;2023-11-21T14:32:15;15.65;;;12.07;;
22764;SDS011;11549;50.852;3.816;2023-11-21T14:34:44;14.00;;;12.10;;
22764;SDS011;11549;50.852;3.816;2023-11-21T14:37:15;14.38;;;11.45;;
22764;SDS011;11549;50.852;3.816;2023-11-21T14:39:43;14.40;;;12.32;;
22764;SDS011;11549;50.852;3.816;2023-11-21T14:42:16;13.88;;;11.60;;
22764;SDS011;11549;50.852;3.816;2023-11-21T14:44:51;14.35;;;11.65;;
22764;SDS011;11549;50.852;3.816;2023-11-21T14:47:21;15.20;;;10.68;;